Time;durP1;ratioP1;P1;durP2;ratioP2;P2;SDS_P1;SDS_P2;PMS_P1;PMS_P2;Temp;Humidity;BMP_temperature;BMP_pressure;BME280_temperature;BME280_humidity;BME280_pressure;Samples;Min_cycle;Max_cycle;Signal;HPM_P1;HPM_P2
2023/10/12 00:01:59;;;;;;;11.27;3.60;;;19.60;99.90;;;;;;4986255;28;21850;-75
2023/10/12 00:04:45;;;;;;;7.30;4.37;;;19.60;99.90;;;;;;4955929;28;20477;-76
2023/10/12 00:07:15;;;;;;;8.77;4.93;;;19.50;99.90;;;;;;4972461;28;20594;-75
2023/10/12 00:09:48;;;;;;;5.37;4.07;;;19.50;99.90;;;;;;4992442;28;20526;-73
2023/10/12 00:12:24;;;;;;;6.57;3.70;;;19.40;99.90;;;;;;4984794;28;20516;-76
2023/10/12 00:14:56;;;;;;;6.50;4.03;;;19.50;99.90;;;;;;4991926;28;20480;-74
2023/10/12 00:17:28;;;;;;;6.07;3.97;;;19.40;99.90;;;;;;4984908;28;20465;-75
2023/10/12 00:19:54;;;;;;;9.77;4.20;;;19.40;99.90;;;;;;4984611;28;20465;-75
2023/10/12 00:22:19;;;;;;;5.50;4.23;;;19.30;99.90;;;;;;4968822;28;20463;-76
2023/10/12 00:24:45;;;;;;;10.83;4.23;;;19.30;99.90;;;;;;4984241;28;20235;-74
2023/10/12 00:27:14;;;;;;;9.10;4.60;;;19.20;99.90;;;;;;4971301;28;20234;-74
2023/10/12 00:29:40;;;;;;;11.80;4.27;;;19.20;99.90;;;;;;4971213;28;20234;-77
2023/10/12 00:32:07;;;;;;;6.07;3.83;;;19.20;99.90;;;;;;4969161;28;20467;-75
2023/10/12 00:34:37;;;;;;;9.07;4.40;;;19.10;99.90;;;;;;4951809;28;20470;-77
2023/10/12 00:37:04;;;;;;;9.60;4.83;;;19.10;99.90;;;;;;4963413;28;20614;-75
2023/10/12 00:39:40;;;;;;;7.00;3.93;;;19.10;99.90;;;;;;4978758;28;20954;-76
2023/10/12 00:42:06;;;;;;;7.47;4.57;;;19.10;99.90;;;;;;4964382;28;20531;-75
2023/10/12 00:44:34;;;;;;;9.07;4.73;;;19.10;99.90;;;;;;4963789;28;21957;-74
2023/10/12 00:47:09;;;;;;;10.00;4.37;;;19.20;99.90;;;;;;4962719;28;20245;-75
2023/10/12 00:49:39;;;;;;;11.03;4.50;;;19.20;99.90;;;;;;4950615;28;20476;-76
2023/10/12 00:52:11;;;;;;;11.83;4.30;;;19.10;99.90;;;;;;4969314;28;21076;-76
2023/10/12 00:57:05;;;;;;;8.67;4.33;;;19.00;99.90;;;;;;4985550;28;20472;-75
2023/10/12 00:59:34;;;;;;;8.80;4.03;;;19.00;99.90;;;;;;4973103;28;20213;-74
2023/10/12 01:02:02;;;;;;;5.57;3.37;;;19.00;99.90;;;;;;4988474;28;20460;-76
2023/10/12 01:04:30;;;;;;;7.17;3.70;;;19.00;99.90;;;;;;4986277;28;21585;-76
2023/10/12 01:06:59;;;;;;;5.47;3.90;;;18.90;99.90;;;;;;4987103;28;21060;-75
2023/10/12 01:09:39;;;;;;;6.23;4.13;;;18.90;99.90;;;;;;4986818;28;20489;-76
2023/10/12 01:12:12;;;;;;;6.93;4.10;;;19.00;99.90;;;;;;4968409;28;20473;-76
2023/10/12 01:14:42;;;;;;;5.60;4.20;;;19.00;99.90;;;;;;4958216;28;20481;-75
2023/10/12 01:17:08;;;;;;;5.77;3.90;;;18.90;99.90;;;;;;4958364;28;20543;-75
2023/10/12 01:19:44;;;;;;;6.20;4.00;;;19.00;99.90;;;;;;4960252;28;20519;-76
2023/10/12 01:22:14;;;;;;;4.90;3.67;;;19.00;99.90;;;;;;4969738;28;20234;-76
2023/10/12 01:27:16;;;;;;;12.53;4.90;;;18.80;99.90;;;;;;4989407;28;20483;-76
2023/10/12 01:29:41;;;;;;;6.97;4.50;;;18.80;99.90;;;;;;4993592;28;20472;-76
2023/10/12 01:34:36;;;;;;;8.80;4.07;;;18.60;99.90;;;;;;4986963;28;20268;-77
2023/10/12 01:37:21;;;;;;;5.03;3.73;;;18.70;99.90;;;;;;4966508;28;20261;-76
2023/10/12 01:39:57;;;;;;;6.83;4.53;;;18.70;99.90;;;;;;4966325;28;20526;-74
2023/10/12 01:45:18;;;;;;;10.77;4.50;;;18.80;99.90;;;;;;4971765;28;21030;-76
2023/10/12 01:47:54;;;;;;;7.33;4.03;;;18.80;99.90;;;;;;4975768;28;21327;-74
2023/10/12 01:50:21;;;;;;;7.40;3.30;;;18.80;99.90;;;;;;4971777;28;20477;-76
2023/10/12 01:52:52;;;;;;;5.07;3.87;;;18.80;99.90;;;;;;4957431;28;21062;-75
2023/10/12 01:55:29;;;;;;;8.90;4.00;;;18.90;99.90;;;;;;4965127;28;20470;-74
2023/10/12 01:57:55;;;;;;;5.20;3.70;;;18.90;99.90;;;;;;4965873;28;20488;-75
2023/10/12 02:00:27;;;;;;;7.87;3.90;;;18.90;99.90;;;;;;4965992;28;20453;-75
2023/10/12 02:03:14;;;;;;;3.47;3.17;;;18.80;99.90;;;;;;4961920;28;20950;-76
2023/10/12 02:05:51;;;;;;;12.23;3.97;;;18.80;99.90;;;;;;4990716;28;20475;-76
2023/10/12 02:08:20;;;;;;;6.57;4.00;;;18.80;99.90;;;;;;4978390;28;20511;-75
2023/10/12 02:11:05;;;;;;;6.73;3.87;;;18.80;99.90;;;;;;4967849;28;20492;-74
2023/10/12 02:13:34;;;;;;;10.60;4.00;;;18.80;99.90;;;;;;4965963;28;20479;-75
2023/10/12 02:16:04;;;;;;;5.70;4.10;;;18.80;99.90;;;;;;4963313;28;20472;-75
2023/10/12 02:18:30;;;;;;;8.70;4.13;;;18.80;99.90;;;;;;4949169;28;20469;-75
2023/10/12 02:21:20;;;;;;;7.53;4.20;;;18.80;99.90;;;;;;4969506;28;20579;-76
2023/10/12 02:28:56;;;;;;;5.40;3.80;;;18.70;99.90;;;;;;4974776;28;20587;-76
2023/10/12 02:31:28;;;;;;;8.80;4.23;;;18.60;99.90;;;;;;4957461;28;21222;-76
2023/10/12 02:33:55;;;;;;;5.47;4.20;;;18.60;99.90;;;;;;4954683;28;21194;-75
2023/10/12 02:36:21;;;;;;;9.67;4.20;;;18.60;99.90;;;;;;4963440;28;20547;-75
2023/10/12 02:38:47;;;;;;;4.67;4.10;;;18.50;99.90;;;;;;4965295;28;20460;-74
2023/10/12 02:41:13;;;;;;;5.63;4.07;;;18.50;99.90;;;;;;4970973;28;20500;-75
2023/10/12 02:43:43;;;;;;;5.43;3.70;;;18.50;99.90;;;;;;4950785;28;20221;-76
2023/10/12 02:46:21;;;;;;;6.80;4.27;;;18.50;99.90;;;;;;4965097;28;21133;-76
2023/10/12 02:48:50;;;;;;;9.47;4.00;;;18.50;99.90;;;;;;4973807;28;20483;-77
2023/10/12 02:51:17;;;;;;;4.07;3.67;;;18.50;99.90;;;;;;4977273;28;20472;-76
2023/10/12 02:53:44;;;;;;;11.33;4.73;;;18.40;99.90;;;;;;4990988;28;20472;-76
2023/10/12 02:56:11;;;;;;;7.47;4.40;;;18.40;99.90;;;;;;4991917;28;20490;-74
2023/10/12 02:58:37;;;;;;;5.40;4.00;;;18.20;99.90;;;;;;4977061;28;20533;-75
2023/10/12 03:01:18;;;;;;;7.77;4.87;;;18.20;99.90;;;;;;4949314;28;21116;-75
2023/10/12 03:03:54;;;;;;;7.17;5.13;;;18.20;99.90;;;;;;4969635;28;20470;-75
2023/10/12 03:06:24;;;;;;;7.90;4.20;;;18.20;99.90;;;;;;4975740;28;20495;-74
2023/10/12 03:11:27;;;;;;;5.50;3.60;;;18.20;99.90;;;;;;4986242;28;20494;-74
2023/10/12 03:14:15;;;;;;;6.03;5.13;;;18.20;99.90;;;;;;4967114;28;20502;-75
2023/10/12 03:16:43;;;;;;;5.17;4.13;;;18.10;99.90;;;;;;4972706;28;21074;-75
2023/10/12 03:19:25;;;;;;;6.17;4.00;;;18.10;99.90;;;;;;4972271;28;20487;-76
2023/10/12 03:21:52;;;;;;;5.73;3.73;;;18.00;99.90;;;;;;4975753;28;20504;-75
2023/10/12 03:24:25;;;;;;;7.17;4.20;;;18.00;99.90;;;;;;4967776;28;20468;-75
2023/10/12 03:29:29;;;;;;;7.83;3.97;;;17.90;99.90;;;;;;4972889;28;20501;-74
2023/10/12 03:31:57;;;;;;;6.63;4.03;;;17.80;99.90;;;;;;4958441;28;20518;-74
2023/10/12 03:34:35;;;;;;;5.43;3.50;;;17.70;99.90;;;;;;4957938;28;20275;-75
2023/10/12 03:37:03;;;;;;;10.40;4.60;;;17.70;99.90;;;;;;4958889;28;21007;-76
2023/10/12 03:39:58;;;;;;;6.87;3.83;;;17.70;99.90;;;;;;4957217;28;20584;-75
2023/10/12 03:42:42;;;;;;;7.60;3.90;;;17.70;99.90;;;;;;4986846;28;20537;-76
2023/10/12 03:45:08;;;;;;;12.90;4.00;;;17.90;99.90;;;;;;4968292;28;20559;-74
2023/10/12 03:47:48;;;;;;;4.33;3.77;;;17.90;99.90;;;;;;4987175;28;20539;-74
2023/10/12 03:50:17;;;;;;;5.00;3.67;;;17.90;99.90;;;;;;4965307;28;20981;-73
2023/10/12 03:52:52;;;;;;;6.37;5.00;;;17.90;99.90;;;;;;4968211;28;20480;-75
2023/10/12 03:55:32;;;;;;;8.30;4.70;;;17.90;99.90;;;;;;4964364;28;20486;-75
2023/10/12 03:58:06;;;;;;;5.53;4.13;;;18.00;99.90;;;;;;4985911;28;20482;-75
2023/10/12 04:00:50;;;;;;;8.50;3.80;;;18.00;99.90;;;;;;4985896;28;20465;-76
2023/10/12 04:03:20;;;;;;;5.27;4.07;;;18.10;99.90;;;;;;4994870;28;20587;-73
2023/10/12 04:05:51;;;;;;;;;;;;;;;;;;;;;
2023/10/12 04:08:37;;;;;;;7.27;4.40;;;18.00;99.90;;;;;;4983454;28;20523;-74
2023/10/12 04:18:32;;;;;;;6.57;3.83;;;18.10;99.90;;;;;;4985791;28;20225;-75
2023/10/12 04:21:04;;;;;;;8.97;4.60;;;18.10;99.90;;;;;;4984735;28;20491;-74
2023/10/12 04:28:56;;;;;;;8.90;4.30;;;18.10;99.90;;;;;;4986139;28;21008;-74
2023/10/12 04:36:34;;;;;;;5.67;3.60;;;18.00;99.90;;;;;;4989165;28;20491;-74
2023/10/12 04:39:16;;;;;;;5.43;3.77;;;18.00;99.90;;;;;;4991304;28;21977;-75
2023/10/12 04:44:52;;;;;;;5.37;4.83;;;17.90;99.90;;;;;;4990872;28;20484;-76
2023/10/12 04:47:07;;;;;;;5.10;4.50;;;17.90;99.90;;;;;;4986602;28;20469;-75
2023/10/12 04:52:17;;;;;;;;;;;;;;;;;;;;;
2023/10/12 04:57:27;;;;;;;4.87;3.50;;;17.90;99.90;;;;;;4986403;28;21016;-75
2023/10/12 05:03:33;;;;;;;4.83;4.00;;;18.00;99.90;;;;;;4986014;28;20627;-76
2023/10/12 05:07:54;;;;;;;6.73;3.73;;;18.00;99.90;;;;;;4987296;28;21157;-76
2023/10/12 05:10:31;;;;;;;6.60;3.87;;;18.10;99.90;;;;;;4987391;28;20237;-75
2023/10/12 05:13:06;;;;;;;6.90;4.73;;;18.10;99.90;;;;;;4994898;28;21057;-76
2023/10/12 05:15:46;;;;;;;13.80;3.90;;;18.10;99.90;;;;;;4984616;28;21089;-76
2023/10/12 05:18:17;;;;;;;5.00;3.90;;;18.10;99.90;;;;;;4983822;28;20504;-76
2023/10/12 05:20:44;;;;;;;6.07;4.10;;;18.10;99.90;;;;;;4969848;28;20514;-75
2023/10/12 05:23:11;;;;;;;5.23;4.10;;;18.00;99.90;;;;;;4988364;28;20549;-74
2023/10/12 05:28:21;;;;;;;6.53;4.10;;;17.90;99.90;;;;;;4981909;28;20476;-76
2023/10/12 05:30:54;;;;;;;10.53;3.87;;;17.90;99.90;;;;;;4977466;28;20562;-75
2023/10/12 05:36:10;;;;;;;11.17;3.83;;;17.90;99.90;;;;;;4944576;28;21599;-76
2023/10/12 05:38:48;;;;;;;5.90;4.17;;;17.90;99.90;;;;;;4941395;28;21072;-75
2023/10/12 05:41:21;;;;;;;8.10;4.20;;;17.90;99.90;;;;;;4950719;28;20480;-75
2023/10/12 05:43:47;;;;;;;5.50;4.73;;;17.90;99.90;;;;;;4972111;28;20522;-76
2023/10/12 05:46:15;;;;;;;4.50;3.87;;;17.90;99.90;;;;;;4955873;28;20618;-74
2023/10/12 05:48:51;;;;;;;7.03;3.93;;;17.80;99.90;;;;;;4956863;28;20773;-75
2023/10/12 05:51:19;;;;;;;6.63;3.73;;;17.80;99.90;;;;;;4978306;28;20566;-76
2023/10/12 05:53:45;;;;;;;7.37;4.60;;;17.70;99.90;;;;;;4956349;28;20485;-74
2023/10/12 05:56:12;;;;;;;9.63;4.40;;;17.70;99.90;;;;;;4955722;28;21564;-76
2023/10/12 05:58:41;;;;;;;7.03;4.17;;;17.60;99.90;;;;;;4939504;28;20474;-77
2023/10/12 06:01:09;;;;;;;5.10;3.87;;;17.60;99.90;;;;;;4938376;28;21007;-76
2023/10/12 06:03:46;;;;;;;6.50;4.83;;;17.70;99.90;;;;;;4950023;28;20492;-75
2023/10/12 06:06:12;;;;;;;4.90;4.10;;;17.60;99.90;;;;;;4936527;28;20492;-76
2023/10/12 06:08:40;;;;;;;12.07;4.67;;;17.60;99.90;;;;;;4939411;28;20477;-75
2023/10/12 06:11:09;;;;;;;5.83;4.40;;;17.50;99.90;;;;;;4926348;28;21020;-76
2023/10/12 06:13:42;;;;;;;6.30;4.13;;;17.60;99.90;;;;;;4926581;28;20859;-75
2023/10/12 06:16:14;;;;;;;8.10;4.17;;;17.60;99.90;;;;;;4936090;28;20581;-76
2023/10/12 06:18:47;;;;;;;11.10;4.40;;;17.60;99.90;;;;;;4954680;28;20546;-74
2023/10/12 06:21:19;;;;;;;7.60;4.00;;;17.60;99.90;;;;;;4955685;28;20495;-76
2023/10/12 06:23:50;;;;;;;3.90;3.50;;;17.50;99.90;;;;;;4956384;28;20496;-76
2023/10/12 06:26:28;;;;;;;6.57;4.40;;;17.50;99.90;;;;;;4962028;28;20467;-76
2023/10/12 06:28:58;;;;;;;8.30;3.90;;;17.50;99.90;;;;;;4938610;28;20484;-76
2023/10/12 06:31:25;;;;;;;10.83;3.90;;;17.60;99.90;;;;;;4957013;28;20489;-75
2023/10/12 06:33:55;;;;;;;6.73;4.10;;;17.50;99.90;;;;;;4956348;28;20485;-76
2023/10/12 06:36:36;;;;;;;7.60;4.20;;;17.50;99.90;;;;;;4959306;28;20480;-75
2023/10/12 06:44:27;;;;;;;5.90;4.10;;;17.70;99.90;;;;;;4950784;28;20618;-76
2023/10/12 06:46:57;;;;;;;5.90;3.93;;;17.70;99.90;;;;;;4951113;28;20477;-74
2023/10/12 06:49:24;;;;;;;10.37;4.43;;;17.70;99.90;;;;;;4934907;28;20484;-75
2023/10/12 06:51:54;;;;;;;6.13;4.20;;;17.70;99.90;;;;;;4937877;28;21339;-74
2023/10/12 06:54:31;;;;;;;8.27;4.00;;;17.80;99.90;;;;;;4946809;28;20487;-74
2023/10/12 06:57:29;;;;;;;5.37;3.83;;;17.70;99.90;;;;;;4933527;28;20499;-76
2023/10/12 06:59:59;;;;;;;5.27;3.77;;;17.80;99.90;;;;;;4936929;28;21222;-75
2023/10/12 07:02:29;;;;;;;5.90;4.10;;;17.80;99.90;;;;;;4953841;28;20558;-74
2023/10/12 07:04:59;;;;;;;5.40;3.80;;;17.80;99.90;;;;;;4944302;28;20556;-75
2023/10/12 07:07:36;;;;;;;;;;;;;;;;;;;;;
2023/10/12 07:12:48;;;;;;;5.40;3.93;;;17.80;99.90;;;;;;4939631;28;20511;-76
2023/10/12 07:15:26;;;;;;;6.30;4.60;;;17.90;99.90;;;;;;4935138;28;21247;-76
2023/10/12 07:17:53;;;;;;;6.93;4.50;;;17.90;99.90;;;;;;4936697;28;20480;-76
2023/10/12 07:22:56;;;;;;;8.00;4.40;;;17.90;99.90;;;;;;4936385;28;20468;-75
2023/10/12 07:25:23;;;;;;;6.20;4.30;;;17.90;99.90;;;;;;4933902;28;20481;-73
2023/10/12 07:27:56;;;;;;;9.83;4.70;;;17.80;99.90;;;;;;4934035;28;20484;-76
2023/10/12 07:30:31;;;;;;;8.03;4.30;;;17.80;99.90;;;;;;4936226;28;20565;-75
2023/10/12 07:33:04;;;;;;;7.87;4.70;;;17.90;99.90;;;;;;4937741;28;20566;-75
2023/10/12 07:35:38;;;;;;;6.50;4.30;;;17.90;99.90;;;;;;4952230;28;20496;-74
2023/10/12 07:38:28;;;;;;;7.03;4.37;;;17.90;99.90;;;;;;4936505;28;20552;-75
2023/10/12 07:43:20;;;;;;;10.13;4.60;;;17.90;99.90;;;;;;4949007;28;21236;-74
2023/10/12 07:45:49;;;;;;;7.23;4.43;;;17.90;99.90;;;;;;4932711;28;20357;-75
2023/10/12 07:48:29;;;;;;;8.83;4.30;;;17.90;99.90;;;;;;4934285;28;20473;-76
2023/10/12 07:50:56;;;;;;;8.47;4.67;;;18.00;99.90;;;;;;4934957;28;20480;-74
2023/10/12 07:53:24;;;;;;;9.93;4.63;;;18.00;99.90;;;;;;4933684;28;20485;-75
2023/10/12 07:55:53;;;;;;;7.87;5.23;;;18.00;99.90;;;;;;4936210;28;20505;-76
2023/10/12 07:58:21;;;;;;;5.37;4.83;;;18.00;99.90;;;;;;4935528;28;20483;-75
2023/10/12 08:00:51;;;;;;;7.77;4.90;;;18.00;99.90;;;;;;4949238;28;20465;-75
2023/10/12 08:03:24;;;;;;;5.27;4.00;;;18.00;99.90;;;;;;4936152;28;20492;-75
2023/10/12 08:05:56;;;;;;;6.03;4.73;;;18.00;99.90;;;;;;4948188;28;20481;-76
2023/10/12 08:08:35;;;;;;;8.30;4.37;;;18.00;99.90;;;;;;4935863;28;21046;-75
2023/10/12 08:11:50;;;;;;;9.80;4.40;;;18.00;99.90;;;;;;4946954;28;20476;-73
2023/10/12 08:13:54;;;;;;;22.17;4.37;;;18.00;99.90;;;;;;4938079;28;20603;-76
2023/10/12 08:16:27;;;;;;;10.03;4.97;;;18.10;99.90;;;;;;4926982;28;20473;-75
2023/10/12 08:21:43;;;;;;;5.83;4.40;;;18.10;99.90;;;;;;4952214;28;20489;-74
2023/10/12 08:24:09;;;;;;;6.20;5.10;;;18.10;99.90;;;;;;4933207;28;20522;-75
2023/10/12 08:40:18;;;;;;;11.97;4.50;;;18.00;99.90;;;;;;4943751;28;20499;-74
2023/10/12 08:45:09;;;;;;;7.40;4.90;;;17.90;99.90;;;;;;4934543;28;21102;-74
2023/10/12 08:50:25;;;;;;;8.13;4.40;;;18.00;99.90;;;;;;4943756;28;20718;-73
2023/10/12 08:52:54;;;;;;;8.57;4.93;;;18.00;99.90;;;;;;4935204;28;20523;-75
2023/10/12 08:55:24;;;;;;;8.83;5.00;;;18.00;99.90;;;;;;4933885;28;20472;-74
2023/10/12 08:58:19;;;;;;;5.77;5.03;;;18.00;99.90;;;;;;4948384;28;20493;-73
2023/10/12 09:01:07;;;;;;;9.57;4.80;;;18.00;99.90;;;;;;4930792;28;20497;-74
2023/10/12 09:03:46;;;;;;;6.63;5.33;;;18.00;99.90;;;;;;4937251;28;20491;-74
2023/10/12 09:08:57;;;;;;;6.63;5.63;;;18.00;99.90;;;;;;4923633;28;20484;-74
2023/10/12 09:11:35;;;;;;;7.20;4.97;;;18.10;99.90;;;;;;4926668;28;20479;-74
2023/10/12 09:14:12;;;;;;;5.60;4.80;;;18.10;99.90;;;;;;4941619;28;21541;-74
2023/10/12 09:16:38;;;;;;;7.87;5.27;;;18.10;99.90;;;;;;4927590;28;21463;-74
2023/10/12 09:19:07;;;;;;;6.33;4.97;;;18.00;99.90;;;;;;4940793;28;20631;-74
2023/10/12 09:21:57;;;;;;;9.87;5.70;;;18.00;99.90;;;;;;4955825;28;20492;-74
2023/10/12 09:24:28;;;;;;;7.10;5.17;;;18.00;99.90;;;;;;4952636;28;20495;-75
2023/10/12 09:27:02;;;;;;;8.97;5.20;;;18.10;99.90;;;;;;4947711;28;20479;-74
2023/10/12 09:29:28;;;;;;;9.87;5.40;;;18.10;99.90;;;;;;4949470;28;20476;-72
2023/10/12 09:37:43;;;;;;;6.33;5.10;;;18.20;99.90;;;;;;4949392;28;21293;-72
2023/10/12 09:40:24;;;;;;;8.27;4.90;;;18.20;99.90;;;;;;4936462;28;21222;-74
2023/10/12 09:42:56;;;;;;;8.67;5.90;;;18.20;99.90;;;;;;4946857;28;20561;-74
2023/10/12 09:45:24;;;;;;;7.53;4.60;;;18.20;99.90;;;;;;4949459;28;20565;-73
2023/10/12 09:47:57;;;;;;;9.63;5.80;;;18.20;99.90;;;;;;4947837;28;20467;-73
2023/10/12 09:50:27;;;;;;;7.87;5.50;;;18.20;99.90;;;;;;4952331;28;20648;-73
2023/10/12 09:52:57;;;;;;;7.27;5.50;;;18.30;99.90;;;;;;4949759;28;20510;-73
2023/10/12 09:55:32;;;;;;;7.87;5.30;;;18.20;99.90;;;;;;4934260;28;20493;-73
2023/10/12 09:58:51;;;;;;;8.43;5.33;;;18.20;99.90;;;;;;4916079;28;20461;-73
2023/10/12 10:01:15;;;;;;;9.27;6.13;;;18.30;99.90;;;;;;4921673;28;20486;-73
2023/10/12 10:03:52;;;;;;;9.70;5.47;;;18.30;99.90;;;;;;4929217;28;20996;-73
2023/10/12 10:06:37;;;;;;;8.00;5.50;;;18.30;99.90;;;;;;4927394;28;20970;-73
2023/10/12 10:09:19;;;;;;;8.90;5.10;;;18.20;99.90;;;;;;4928047;28;21240;-73
2023/10/12 10:11:46;;;;;;;7.10;5.20;;;18.20;99.90;;;;;;4929522;28;20484;-74
2023/10/12 10:14:20;;;;;;;8.60;5.67;;;18.20;99.90;;;;;;4931128;28;20535;-73
2023/10/12 10:16:46;;;;;;;6.60;5.13;;;18.20;99.90;;;;;;4928969;28;21149;-72
2023/10/12 10:19:13;;;;;;;11.53;5.53;;;18.20;99.90;;;;;;4950506;28;20875;-73
2023/10/12 10:21:50;;;;;;;9.40;5.50;;;18.20;99.90;;;;;;4944566;28;20508;-73
2023/10/12 10:24:23;;;;;;;9.00;5.33;;;18.20;99.90;;;;;;4949984;28;20490;-73
2023/10/12 10:26:57;;;;;;;9.73;5.17;;;18.20;99.90;;;;;;4945897;28;20555;-73
2023/10/12 10:29:40;;;;;;;10.07;6.50;;;18.30;99.90;;;;;;4950392;28;21061;-74
2023/10/12 10:32:07;;;;;;;8.43;5.80;;;18.30;99.90;;;;;;4951479;28;20604;-74
2023/10/12 10:34:34;;;;;;;7.43;5.50;;;18.30;99.90;;;;;;4950528;28;20503;-74
2023/10/12 10:37:00;;;;;;;8.23;5.00;;;18.30;99.90;;;;;;4947106;28;20508;-71
2023/10/12 10:39:29;;;;;;;7.40;5.23;;;18.30;99.90;;;;;;4950458;28;20471;-73
2023/10/12 10:42:00;;;;;;;8.90;5.63;;;18.30;99.90;;;;;;4946583;28;20798;-73
2023/10/12 10:44:26;;;;;;;7.67;5.50;;;18.30;99.90;;;;;;4948920;28;20507;-73
2023/10/12 10:47:00;;;;;;;7.77;6.17;;;18.20;99.90;;;;;;4944533;28;20477;-72
2023/10/12 10:49:32;;;;;;;8.47;5.67;;;18.20;99.90;;;;;;4952648;28;20467;-72
2023/10/12 10:54:30;;;;;;;8.03;5.60;;;18.30;99.90;;;;;;4950284;28;20469;-72
2023/10/12 10:56:59;;;;;;;7.43;5.90;;;18.20;99.90;;;;;;4947268;28;20473;-73
2023/10/12 10:59:25;;;;;;;8.60;6.13;;;18.20;99.90;;;;;;4947525;28;20466;-74
2023/10/12 11:01:52;;;;;;;9.00;6.20;;;18.20;99.90;;;;;;4910549;28;20889;-70
2023/10/12 11:07:04;;;;;;;10.10;5.93;;;18.30;99.90;;;;;;4914201;28;21050;-73
2023/10/12 11:12:23;;;;;;;9.63;6.03;;;18.30;99.90;;;;;;4970657;28;21062;-73
2023/10/12 11:17:56;;;;;;;7.90;5.90;;;18.20;99.90;;;;;;4977062;28;20481;-71
2023/10/12 11:20:27;;;;;;;15.33;6.57;;;18.10;99.90;;;;;;4955332;28;20534;-73
2023/10/12 11:22:56;;;;;;;9.00;6.10;;;18.10;99.90;;;;;;4945501;28;20483;-73
2023/10/12 11:25:22;;;;;;;9.03;4.97;;;18.00;99.90;;;;;;4936539;28;20679;-73
2023/10/12 11:27:51;;;;;;;8.93;5.27;;;18.00;99.90;;;;;;4915745;28;21019;-73
2023/10/12 11:30:34;;;;;;;5.87;5.00;;;18.10;99.90;;;;;;4928510;28;21094;-72
2023/10/12 11:33:06;;;;;;;8.30;5.97;;;18.20;99.90;;;;;;4926501;28;20792;-73
2023/10/12 11:35:43;;;;;;;8.63;6.10;;;18.20;99.90;;;;;;4928505;28;20492;-72
2023/10/12 11:38:17;;;;;;;7.10;5.90;;;18.00;99.90;;;;;;4933849;28;20480;-74
2023/10/12 11:40:55;;;;;;;8.20;6.17;;;18.00;99.90;;;;;;4946483;28;20491;-72
2023/10/12 11:43:29;;;;;;;10.50;6.27;;;17.90;99.90;;;;;;4949805;28;20493;-73
2023/10/12 11:46:01;;;;;;;7.20;5.50;;;17.90;99.90;;;;;;4944895;28;20515;-73
2023/10/12 11:48:28;;;;;;;8.37;5.90;;;17.90;99.90;;;;;;4951301;28;20480;-73
2023/10/12 11:50:55;;;;;;;10.60;7.00;;;18.00;99.90;;;;;;4956553;28;20567;-73
2023/10/12 11:53:21;;;;;;;8.23;6.33;;;18.00;99.90;;;;;;4968927;28;21306;-72
2023/10/12 11:55:50;;;;;;;9.87;6.70;;;17.90;99.90;;;;;;4946285;28;20633;-73
2023/10/12 11:58:19;;;;;;;10.63;6.57;;;18.00;99.90;;;;;;4951397;28;20361;-74
2023/10/12 12:00:48;;;;;;;10.70;5.27;;;18.10;99.90;;;;;;4946151;28;20488;-73
2023/10/12 12:03:15;;;;;;;9.13;5.97;;;18.20;99.90;;;;;;4934293;28;21215;-72
2023/10/12 12:05:43;;;;;;;8.00;6.53;;;18.20;99.90;;;;;;4950709;28;20618;-73
2023/10/12 12:08:17;;;;;;;9.10;6.17;;;18.10;99.90;;;;;;4948906;28;20595;-74
2023/10/12 12:10:45;;;;;;;;;;;;;;;;;;;;;
2023/10/12 12:13:12;;;;;;;8.43;5.93;;;18.00;99.90;;;;;;4951798;28;20477;-72
2023/10/12 12:15:43;;;;;;;7.27;6.30;;;17.90;99.90;;;;;;4953606;28;20587;-73
2023/10/12 12:18:19;;;;;;;9.13;5.70;;;18.00;99.90;;;;;;4951275;28;21582;-73
2023/10/12 12:20:51;;;;;;;10.37;6.07;;;17.90;99.90;;;;;;4946273;28;20471;-73
2023/10/12 12:23:26;;;;;;;8.13;5.30;;;17.90;99.90;;;;;;4948520;28;20521;-71
2023/10/12 12:25:59;;;;;;;8.97;6.00;;;17.90;99.90;;;;;;4930051;28;20486;-72
2023/10/12 12:28:31;;;;;;;8.63;5.73;;;17.90;99.90;;;;;;4933992;28;20486;-72
2023/10/12 12:31:00;;;;;;;9.20;6.60;;;17.90;99.90;;;;;;4930648;28;20485;-72
2023/10/12 12:33:27;;;;;;;6.27;5.63;;;17.90;99.90;;;;;;4920575;28;20511;-72
2023/10/12 12:36:10;;;;;;;8.43;5.83;;;17.80;99.90;;;;;;4926708;28;20499;-72
2023/10/12 12:41:22;;;;;;;9.33;6.00;;;17.90;99.90;;;;;;4932711;28;20488;-72
2023/10/12 12:43:48;;;;;;;8.97;6.43;;;18.00;99.90;;;;;;4915818;28;20890;-72
2023/10/12 12:46:16;;;;;;;8.77;6.00;;;18.00;99.90;;;;;;4932115;28;20595;-72
2023/10/12 12:48:45;;;;;;;10.07;6.13;;;18.10;99.90;;;;;;4919361;28;20486;-72
2023/10/12 12:51:15;;;;;;;8.73;6.17;;;18.00;99.90;;;;;;4938539;28;21164;-71
2023/10/12 12:53:49;;;;;;;6.63;5.83;;;18.00;99.90;;;;;;4936951;28;21034;-72
2023/10/12 12:56:16;;;;;;;11.60;6.60;;;18.00;99.90;;;;;;4937168;28;20481;-73
2023/10/12 12:58:46;;;;;;;9.93;6.10;;;18.00;99.90;;;;;;4943410;28;20480;-73
2023/10/12 13:01:17;;;;;;;10.73;6.30;;;18.00;99.90;;;;;;4933413;28;20492;-73
2023/10/12 13:03:46;;;;;;;7.73;5.43;;;17.90;99.90;;;;;;4947238;28;20530;-73
2023/10/12 13:06:14;;;;;;;9.97;6.37;;;17.80;99.90;;;;;;4933095;28;20533;-72
2023/10/12 13:08:41;;;;;;;9.40;7.20;;;17.90;99.90;;;;;;4928867;28;20741;-73
2023/10/12 13:11:07;;;;;;;12.10;6.30;;;17.80;99.90;;;;;;4932806;28;21818;-73
2023/10/12 13:13:35;;;;;;;8.73;6.13;;;17.80;99.90;;;;;;4931455;28;20481;-73
2023/10/12 13:16:03;;;;;;;8.33;6.10;;;17.80;99.90;;;;;;4928705;28;20480;-72
2023/10/12 13:18:32;;;;;;;15.33;6.80;;;17.80;99.90;;;;;;4928295;28;20479;-73
2023/10/12 13:21:00;;;;;;;9.90;6.23;;;17.90;99.90;;;;;;4930350;28;22908;-73
2023/10/12 13:23:26;;;;;;;10.87;5.90;;;17.90;99.90;;;;;;4947046;28;20497;-73
2023/10/12 13:25:53;;;;;;;10.77;6.87;;;18.00;99.90;;;;;;4940199;28;20477;-73
2023/10/12 13:28:18;;;;;;;7.27;5.20;;;17.90;99.90;;;;;;4941612;28;21164;-73
2023/10/12 13:30:44;;;;;;;9.17;5.43;;;17.90;99.90;;;;;;4947894;28;20625;-72
2023/10/12 13:33:13;;;;;;;7.40;5.53;;;18.00;99.90;;;;;;4953732;28;20237;-74
2023/10/12 13:38:09;;;;;;;9.80;6.57;;;18.00;99.90;;;;;;4946242;28;20484;-73
2023/10/12 13:40:46;;;;;;;10.67;6.47;;;18.00;99.90;;;;;;4932048;28;20492;-73
2023/10/12 13:43:18;;;;;;;6.97;5.80;;;18.00;99.90;;;;;;4931343;28;20484;-73
2023/10/12 13:45:52;;;;;;;7.03;5.00;;;18.00;99.90;;;;;;4941722;28;20619;-74
2023/10/12 13:48:27;;;;;;;10.83;6.77;;;18.10;99.90;;;;;;4930858;28;20566;-72
2023/10/12 13:51:01;;;;;;;7.87;6.37;;;18.10;99.90;;;;;;4929527;28;20553;-73
2023/10/12 13:53:27;;;;;;;7.37;6.13;;;18.10;99.90;;;;;;4930849;28;20485;-73
2023/10/12 13:55:54;;;;;;;9.20;6.27;;;18.10;99.90;;;;;;4942881;28;20533;-72
2023/10/12 13:58:26;;;;;;;7.70;6.43;;;18.10;99.90;;;;;;4931987;28;20473;-73
2023/10/12 14:00:54;;;;;;;7.90;6.50;;;18.20;99.90;;;;;;4925333;28;21210;-73
2023/10/12 14:03:28;;;;;;;14.23;7.60;;;18.10;99.90;;;;;;4933651;28;20520;-73
2023/10/12 14:05:59;;;;;;;8.10;6.80;;;18.20;99.90;;;;;;4927387;28;21235;-73
2023/10/12 14:08:25;;;;;;;12.10;6.73;;;18.10;99.90;;;;;;4930860;28;20484;-74
2023/10/12 14:10:51;;;;;;;13.43;7.40;;;18.20;99.90;;;;;;4924173;28;21350;-70
2023/10/12 14:13:17;;;;;;;10.00;6.53;;;18.20;99.90;;;;;;4922541;28;20481;-73
2023/10/12 14:15:43;;;;;;;8.53;5.83;;;18.10;99.90;;;;;;4927656;28;20307;-74
2023/10/12 14:18:14;;;;;;;7.60;6.27;;;18.20;99.90;;;;;;4930257;28;20637;-73
2023/10/12 14:20:42;;;;;;;7.93;6.33;;;18.20;99.90;;;;;;4933018;28;20222;-73
2023/10/12 14:23:09;;;;;;;7.77;6.00;;;18.20;99.90;;;;;;4951576;28;20468;-73
2023/10/12 14:25:42;;;;;;;11.87;7.20;;;18.20;99.90;;;;;;4951826;28;20478;-73
2023/10/12 14:28:09;;;;;;;7.90;6.10;;;18.20;99.90;;;;;;4964843;28;20488;-72
2023/10/12 14:30:36;;;;;;;7.70;6.90;;;18.30;99.90;;;;;;4979834;28;20490;-73
2023/10/12 14:33:03;;;;;;;8.93;5.57;;;18.30;99.90;;;;;;4951649;28;20524;-73
2023/10/12 14:35:40;;;;;;;7.77;5.90;;;18.30;99.90;;;;;;4971405;28;20483;-73
2023/10/12 14:38:13;;;;;;;8.37;6.60;;;18.30;99.90;;;;;;4960723;28;20478;-73
2023/10/12 14:40:40;;;;;;;8.07;5.70;;;18.30;99.90;;;;;;4933555;28;20491;-73
2023/10/12 14:43:11;;;;;;;6.97;6.03;;;18.30;99.90;;;;;;4930798;28;21019;-73
2023/10/12 14:45:49;;;;;;;7.73;5.80;;;18.40;99.90;;;;;;4929807;28;20482;-73
2023/10/12 14:48:18;;;;;;;6.70;5.80;;;18.40;99.90;;;;;;4954515;28;20524;-73
2023/10/12 14:50:48;;;;;;;7.40;5.77;;;18.40;99.90;;;;;;4977215;28;20492;-71
2023/10/12 14:53:21;;;;;;;7.20;6.00;;;18.40;99.90;;;;;;4933668;28;20721;-73
2023/10/12 14:55:51;;;;;;;11.00;6.60;;;18.40;99.90;;;;;;4938279;28;20570;-73
2023/10/12 14:58:20;;;;;;;6.97;5.70;;;18.40;99.90;;;;;;4943569;28;20473;-73
2023/10/12 15:00:47;;;;;;;7.57;5.60;;;18.40;99.90;;;;;;4934916;28;20499;-73
2023/10/12 15:03:21;;;;;;;10.80;7.03;;;18.50;99.90;;;;;;4976164;28;20460;-72
2023/10/12 15:05:47;;;;;;;10.27;7.80;;;18.50;99.90;;;;;;4974021;28;20475;-71
2023/10/12 15:08:13;;;;;;;11.37;7.40;;;18.50;99.90;;;;;;4977180;28;20484;-74
2023/10/12 15:10:43;;;;;;;7.50;6.63;;;18.50;99.90;;;;;;4977856;28;20512;-72